Buoy 33880

sailwx.info

Track history (hours):
 
Tides and Currents Weather Stations Pressure Air Temp Water Temp Dewpoint Dewpoint Depression Visibility Wind Speed Wind Dir Waves Ship Positions

Drifting buoy 33880

Last reported at 2017-Jan-19 08:00 UTC. Time now 2017-Jan-19 13:07 UTC.
Position S 40°12' W 041°47'.

Date/timePositionNaut miles runAvg speedWind from/ knotsBaromVisibWave heightAir tempDewpointWater temp
2017-Jan-19 08:00S 40°12' W 041°47'3 1.1
2017-Jan-19 05:00S 40°10' W 041°50'1 1.1
2017-Jan-19 04:00S 40°10' W 041°52'2 1.9
2017-Jan-19 03:00S 40°09' W 041°54'0 0.0
2017-Jan-19 02:00S 40°09' W 041°54'0 0.5
2017-Jan-19 01:00S 40°09' W 041°55'1 0.9
2017-Jan-19 00:00S 40°09' W 041°56'2 0.9
2017-Jan-18 22:00S 40°08' W 041°58'0 0.5
2017-Jan-18 21:00S 40°08' W 041°58'1 0.7
2017-Jan-18 19:00S 40°08' W 042°00'2 2.3
2017-Jan-18 18:00S 40°06' W 042°02'0 0.0
2017-Jan-18 12:00S 40°06' W 042°02'1 0.5
2017-Jan-18 10:00S 40°06' W 042°03'4 1.0
2017-Jan-18 06:00S 40°04' W 042°07'1 0.6
2017-Jan-18 05:00S 40°03' W 042°07'0 0.0
2017-Jan-18 04:00S 40°03' W 042°07'3 2.6
2017-Jan-18 03:00S 40°01' W 042°10'4 0.9
2017-Jan-17 22:00S 39°58' W 042°13'1 1.2
2017-Jan-17 21:00S 39°56' W 042°13'4 3.6
2017-Jan-17 20:00S 39°53' W 042°13'0 0.0
2017-Jan-17 18:00S 39°53' W 042°13'2 2.4
2017-Jan-17 17:00S 39°50' W 042°13'0 0.0
2017-Jan-17 16:00S 39°50' W 042°13'5 1.8
2017-Jan-17 13:00S 39°45' W 042°13'1 0.8
2017-Jan-17 12:00S 39°46' W 042°13'4 1.8
2017-Jan-17 10:00S 39°42' W 042°13'1 1.2
2017-Jan-17 09:00S 39°41' W 042°13'2 1.0
2017-Jan-17 07:00S 39°39' W 042°11'2 1.8
2017-Jan-17 06:00S 39°37' W 042°11'2 1.8
2017-Jan-17 05:00S 39°35' W 042°11'0 0.0
2017-Jan-17 04:00S 39°35' W 042°11'5 1.6
2017-Jan-17 01:00S 39°31' W 042°13'0 0.0
2017-Jan-17 00:00S 39°31' W 042°13'2 2.4
2017-Jan-16 23:00S 39°28' W 042°13'1 1.3
2017-Jan-16 22:00S 39°27' W 042°14'2 1.8
2017-Jan-16 21:00S 39°25' W 042°14'3 1.5
2017-Jan-16 19:00S 39°22' W 042°13'1 1.3
2017-Jan-16 18:00S 39°21' W 042°14'2 2.4
2017-Jan-16 17:00S 39°19' W 042°14'7 1.4
2017-Jan-16 12:00S 39°12' W 042°11'2 1.8
2017-Jan-16 11:00S 39°10' W 042°11'0 0.0
2017-Jan-16 10:00S 39°10' W 042°11'2 1.2
2017-Jan-16 08:00S 39°08' W 042°11'10 1.7
2017-Jan-16 02:00S 38°58' W 042°13'1 0.8
2017-Jan-16 01:00S 38°58' W 042°13'3 3.3
2017-Jan-16 00:00S 38°55' W 042°11'1 1.3
2017-Jan-15 23:00S 38°54' W 042°11'3 1.0
2017-Jan-15 20:00S 38°51' W 042°10'1 0.8
2017-Jan-15 19:00S 38°50' W 042°10'1 0.6
2017-Jan-15 17:00S 38°49' W 042°10'5 1.1
2017-Jan-15 13:00S 38°45' W 042°12'2 1.2
2017-Jan-15 11:00S 38°43' W 042°13'2 1.9
2017-Jan-15 10:00S 38°41' W 042°13'11 1.2
2017-Jan-15 01:00S 38°30' W 042°13'1 0.8
2017-Jan-15 00:00S 38°29' W 042°13'1 0.6
2017-Jan-14 23:00S 38°29' W 042°13'1 0.4
2017-Jan-14 21:00S 38°28' W 042°13'1 0.8
2017-Jan-14 20:00S 38°28' W 042°14'2 1.5
2017-Jan-14 19:00S 38°26' W 042°15'2 1.5
2017-Jan-14 18:00S 38°25' W 042°16'0 0.0
2017-Jan-14 17:00S 38°25' W 042°16'6 1.5
2017-Jan-14 13:00S 38°19' W 042°18'2 0.9
2017-Jan-14 11:00S 38°17' W 042°18'0 0.0
2017-Jan-14 10:00S 38°17' W 042°18'2 1.9
2017-Jan-14 09:00S 38°16' W 042°16'1 0.4
2017-Jan-14 06:00S 38°16' W 042°15'1 0.8
2017-Jan-14 05:00S 38°16' W 042°14'0 0.0
2017-Jan-14 04:00S 38°16' W 042°14'3 1.5
2017-Jan-14 02:00S 38°15' W 042°18'3 1.4
2017-Jan-14 00:00S 38°13' W 042°20'4 4.1
2017-Jan-13 23:00S 38°10' W 042°23'3 3.1
2017-Jan-13 22:00S 38°12' W 042°21'5 5.3
2017-Jan-13 21:00S 38°08' W 042°25'2 2.3
2017-Jan-13 20:00S 38°10' W 042°23'2 2.3
2017-Jan-13 19:00S 38°08' W 042°25'2 2.0
2017-Jan-13 18:00S 38°06' W 042°26'0 0.0
2017-Jan-13 17:00S 38°06' W 042°26'7 1.3
2017-Jan-13 12:00S 38°00' W 042°30'2 2.0
2017-Jan-13 11:00S 37°58' W 042°31'0 0.0
2017-Jan-13 10:00S 37°58' W 042°31'0 0.5
2017-Jan-13 09:00S 37°58' W 042°31'2 0.5
2017-Jan-13 06:00S 37°58' W 042°32'0 0.0
2017-Jan-13 05:00S 37°58' W 042°32'7 1.1
2017-Jan-12 23:00S 37°55' W 042°40'2 0.4
2017-Jan-12 19:00S 37°53' W 042°41'1 0.8
2017-Jan-12 18:00S 37°53' W 042°41'2 2.2
2017-Jan-12 17:00S 37°54' W 042°43'0 0.1
2017-Jan-12 12:00S 37°54' W 042°44'2 0.8
2017-Jan-12 10:00S 37°55' W 042°46'2 0.8
2017-Jan-12 08:00S 37°55' W 042°47'5 2.4
2017-Jan-12 06:00S 37°54' W 042°53'0 0.0
2017-Jan-12 05:00S 37°54' W 042°53'2 0.5
2017-Jan-12 02:00S 37°53' W 042°55'1 0.3
2017-Jan-11 23:00S 37°52' W 042°55'0 0.0
2017-Jan-11 21:00S 37°52' W 042°55'0 0.5
2017-Jan-11 20:00S 37°52' W 042°55'1 0.8
2017-Jan-11 19:00S 37°53' W 042°55'0 0.0
2017-Jan-11 18:00S 37°53' W 042°55'3 2.8
2017-Jan-11 17:00S 37°55' W 042°57'1 0.2
2017-Jan-11 11:00S 37°55' W 042°58'2 0.3
2017-Jan-11 05:00S 37°55' W 043°01'2 0.6
2017-Jan-11 02:00S 37°56' W 042°59'1 0.6
2017-Jan-11 01:00S 37°57' W 042°59'2 0.9
2017-Jan-10 23:00S 37°59' W 042°58'1 1.1
2017-Jan-10 22:00S 37°59' W 042°59'2 1.8
2017-Jan-10 21:00S 38°01' W 042°59'1 0.8
2017-Jan-10 20:00S 38°02' W 043°00'1 0.6
2017-Jan-10 19:00S 38°02' W 043°00'5 4.7
2017-Jan-10 18:00S 38°02' W 043°06'3 3.3
2017-Jan-10 17:00S 38°02' W 043°02'3 0.8
2017-Jan-10 13:00S 38°02' W 043°06'0 0.5
2017-Jan-10 12:00S 38°02' W 043°07'1 0.8
2017-Jan-10 11:00S 38°02' W 043°06'0 0.0
2017-Jan-10 09:00S 38°02' W 043°06'1 0.8
2017-Jan-10 08:00S 38°01' W 043°05'0 0.0
2017-Jan-10 07:00S 38°01' W 043°05'3 1.0
2017-Jan-10 04:00S 38°04' W 043°04'1 1.3
2017-Jan-10 03:00S 38°05' W 043°05'1 0.5
2017-Jan-10 01:00S 38°05' W 043°06'0 0.5
2017-Jan-10 00:00S 38°05' W 043°07'1 1.1
2017-Jan-09 23:00S 38°06' W 043°08'0 0.5
2017-Jan-09 22:00S 38°06' W 043°08'2 1.0
2017-Jan-09 20:00S 38°04' W 043°07'2 1.5
2017-Jan-09 19:00S 38°05' W 043°09'2 1.5
2017-Jan-09 18:00S 38°04' W 043°07'0 0.0
2017-Jan-09 17:00S 38°04' W 043°07'1 0.2
2017-Jan-09 10:00S 38°05' W 043°07'0 0.0
2017-Jan-09 09:00S 38°05' W 043°07'  
Track history (hours):
 
Tides and Currents Weather Stations Pressure Air Temp Water Temp Dewpoint Dewpoint Depression Visibility Wind Speed Wind Dir Waves Ship Positions

Drifting buoy 33880

Last reported at 2017-Jan-19 08:00 UTC. Time now 2017-Jan-19 13:07 UTC.
Position S 40°12' W 041°47'.

Date/timePositionNaut miles runAvg speedWind from/ knotsBaromVisibWave heightAir tempDewpointWater temp
2017-Jan-19 08:00S 40°12' W 041°47'3 1.1
2017-Jan-19 05:00S 40°10' W 041°50'1 1.1
2017-Jan-19 04:00S 40°10' W 041°52'2 1.9
2017-Jan-19 03:00S 40°09' W 041°54'0 0.0
2017-Jan-19 02:00S 40°09' W 041°54'0 0.5
2017-Jan-19 01:00S 40°09' W 041°55'1 0.9
2017-Jan-19 00:00S 40°09' W 041°56'2 0.9
2017-Jan-18 22:00S 40°08' W 041°58'0 0.5
2017-Jan-18 21:00S 40°08' W 041°58'1 0.7
2017-Jan-18 19:00S 40°08' W 042°00'2 2.3
2017-Jan-18 18:00S 40°06' W 042°02'0 0.0
2017-Jan-18 12:00S 40°06' W 042°02'1 0.5
2017-Jan-18 10:00S 40°06' W 042°03'4 1.0
2017-Jan-18 06:00S 40°04' W 042°07'1 0.6
2017-Jan-18 05:00S 40°03' W 042°07'0 0.0
2017-Jan-18 04:00S 40°03' W 042°07'3 2.6
2017-Jan-18 03:00S 40°01' W 042°10'4 0.9
2017-Jan-17 22:00S 39°58' W 042°13'1 1.2
2017-Jan-17 21:00S 39°56' W 042°13'4 3.6
2017-Jan-17 20:00S 39°53' W 042°13'0 0.0
2017-Jan-17 18:00S 39°53' W 042°13'2 2.4
2017-Jan-17 17:00S 39°50' W 042°13'0 0.0
2017-Jan-17 16:00S 39°50' W 042°13'5 1.8
2017-Jan-17 13:00S 39°45' W 042°13'1 0.8
2017-Jan-17 12:00S 39°46' W 042°13'4 1.8
2017-Jan-17 10:00S 39°42' W 042°13'1 1.2
2017-Jan-17 09:00S 39°41' W 042°13'2 1.0
2017-Jan-17 07:00S 39°39' W 042°11'2 1.8
2017-Jan-17 06:00S 39°37' W 042°11'2 1.8
2017-Jan-17 05:00S 39°35' W 042°11'0 0.0
2017-Jan-17 04:00S 39°35' W 042°11'5 1.6
2017-Jan-17 01:00S 39°31' W 042°13'0 0.0
2017-Jan-17 00:00S 39°31' W 042°13'2 2.4
2017-Jan-16 23:00S 39°28' W 042°13'1 1.3
2017-Jan-16 22:00S 39°27' W 042°14'2 1.8
2017-Jan-16 21:00S 39°25' W 042°14'3 1.5
2017-Jan-16 19:00S 39°22' W 042°13'1 1.3
2017-Jan-16 18:00S 39°21' W 042°14'2 2.4
2017-Jan-16 17:00S 39°19' W 042°14'7 1.4
2017-Jan-16 12:00S 39°12' W 042°11'2 1.8
2017-Jan-16 11:00S 39°10' W 042°11'0 0.0
2017-Jan-16 10:00S 39°10' W 042°11'2 1.2
2017-Jan-16 08:00S 39°08' W 042°11'10 1.7
2017-Jan-16 02:00S 38°58' W 042°13'1 0.8
2017-Jan-16 01:00S 38°58' W 042°13'3 3.3
2017-Jan-16 00:00S 38°55' W 042°11'1 1.3
2017-Jan-15 23:00S 38°54' W 042°11'3 1.0
2017-Jan-15 20:00S 38°51' W 042°10'1 0.8
2017-Jan-15 19:00S 38°50' W 042°10'1 0.6
2017-Jan-15 17:00S 38°49' W 042°10'5 1.1
2017-Jan-15 13:00S 38°45' W 042°12'2 1.2
2017-Jan-15 11:00S 38°43' W 042°13'2 1.9
2017-Jan-15 10:00S 38°41' W 042°13'11 1.2
2017-Jan-15 01:00S 38°30' W 042°13'1 0.8
2017-Jan-15 00:00S 38°29' W 042°13'1 0.6
2017-Jan-14 23:00S 38°29' W 042°13'1 0.4
2017-Jan-14 21:00S 38°28' W 042°13'1 0.8
2017-Jan-14 20:00S 38°28' W 042°14'2 1.5
2017-Jan-14 19:00S 38°26' W 042°15'2 1.5
2017-Jan-14 18:00S 38°25' W 042°16'0 0.0
2017-Jan-14 17:00S 38°25' W 042°16'6 1.5
2017-Jan-14 13:00S 38°19' W 042°18'2 0.9
2017-Jan-14 11:00S 38°17' W 042°18'0 0.0
2017-Jan-14 10:00S 38°17' W 042°18'2 1.9
2017-Jan-14 09:00S 38°16' W 042°16'1 0.4
2017-Jan-14 06:00S 38°16' W 042°15'1 0.8
2017-Jan-14 05:00S 38°16' W 042°14'0 0.0
2017-Jan-14 04:00S 38°16' W 042°14'3 1.5
2017-Jan-14 02:00S 38°15' W 042°18'3 1.4
2017-Jan-14 00:00S 38°13' W 042°20'4 4.1
2017-Jan-13 23:00S 38°10' W 042°23'3 3.1
2017-Jan-13 22:00S 38°12' W 042°21'5 5.3
2017-Jan-13 21:00S 38°08' W 042°25'2 2.3
2017-Jan-13 20:00S 38°10' W 042°23'2 2.3
2017-Jan-13 19:00S 38°08' W 042°25'2 2.0
2017-Jan-13 18:00S 38°06' W 042°26'0 0.0
2017-Jan-13 17:00S 38°06' W 042°26'7 1.3
2017-Jan-13 12:00S 38°00' W 042°30'2 2.0
2017-Jan-13 11:00S 37°58' W 042°31'0 0.0
2017-Jan-13 10:00S 37°58' W 042°31'0 0.5
2017-Jan-13 09:00S 37°58' W 042°31'2 0.5
2017-Jan-13 06:00S 37°58' W 042°32'0 0.0
2017-Jan-13 05:00S 37°58' W 042°32'7 1.1
2017-Jan-12 23:00S 37°55' W 042°40'2 0.4
2017-Jan-12 19:00S 37°53' W 042°41'1 0.8
2017-Jan-12 18:00S 37°53' W 042°41'2 2.2
2017-Jan-12 17:00S 37°54' W 042°43'0 0.1
2017-Jan-12 12:00S 37°54' W 042°44'2 0.8
2017-Jan-12 10:00S 37°55' W 042°46'2 0.8
2017-Jan-12 08:00S 37°55' W 042°47'5 2.4
2017-Jan-12 06:00S 37°54' W 042°53'0 0.0
2017-Jan-12 05:00S 37°54' W 042°53'2 0.5
2017-Jan-12 02:00S 37°53' W 042°55'1 0.3
2017-Jan-11 23:00S 37°52' W 042°55'0 0.0
2017-Jan-11 21:00S 37°52' W 042°55'0 0.5
2017-Jan-11 20:00S 37°52' W 042°55'1 0.8
2017-Jan-11 19:00S 37°53' W 042°55'0 0.0
2017-Jan-11 18:00S 37°53' W 042°55'3 2.8
2017-Jan-11 17:00S 37°55' W 042°57'1 0.2
2017-Jan-11 11:00S 37°55' W 042°58'2 0.3
2017-Jan-11 05:00S 37°55' W 043°01'2 0.6
2017-Jan-11 02:00S 37°56' W 042°59'1 0.6
2017-Jan-11 01:00S 37°57' W 042°59'2 0.9
2017-Jan-10 23:00S 37°59' W 042°58'1 1.1
2017-Jan-10 22:00S 37°59' W 042°59'2 1.8
2017-Jan-10 21:00S 38°01' W 042°59'1 0.8
2017-Jan-10 20:00S 38°02' W 043°00'1 0.6
2017-Jan-10 19:00S 38°02' W 043°00'5 4.7
2017-Jan-10 18:00S 38°02' W 043°06'3 3.3
2017-Jan-10 17:00S 38°02' W 043°02'3 0.8
2017-Jan-10 13:00S 38°02' W 043°06'0 0.5
2017-Jan-10 12:00S 38°02' W 043°07'1 0.8
2017-Jan-10 11:00S 38°02' W 043°06'0 0.0
2017-Jan-10 09:00S 38°02' W 043°06'1 0.8
2017-Jan-10 08:00S 38°01' W 043°05'0 0.0
2017-Jan-10 07:00S 38°01' W 043°05'3 1.0
2017-Jan-10 04:00S 38°04' W 043°04'1 1.3
2017-Jan-10 03:00S 38°05' W 043°05'1 0.5
2017-Jan-10 01:00S 38°05' W 043°06'0 0.5
2017-Jan-10 00:00S 38°05' W 043°07'1 1.1
2017-Jan-09 23:00S 38°06' W 043°08'0 0.5
2017-Jan-09 22:00S 38°06' W 043°08'2 1.0
2017-Jan-09 20:00S 38°04' W 043°07'2 1.5
2017-Jan-09 19:00S 38°05' W 043°09'2 1.5
2017-Jan-09 18:00S 38°04' W 043°07'0 0.0
2017-Jan-09 17:00S 38°04' W 043°07'1 0.2
2017-Jan-09 10:00S 38°05' W 043°07'0 0.0
2017-Jan-09 09:00S 38°05' W 043°07'  

Dump ship's entire track history